Aérodrome :
LOGIN :

S'inscrire | Disclaimer

   EN    FR    IT 

 










Légende :    VFR   VFR Marginal   IFR   IFR Intensif   IFR Très Intensif
Visi : 
Plafond : 
>= 8 km
>= 3000ft
5 à 8 km
1000 à 3000 ft
1500m à 5 km
500 à 1000 ft
800 à 1500m
200 à 500 ft
< 800m
< 200 ft
Symboles :   Orages  Brouillard  Fortes neiges  Fortes précipitations  Vent > 20 kt
SIGMETs :   Divers  Orages  Givrage  Turbulence  Onde Orograph.  Cendres Volcan.







- Altitude de l'aérodrome : 12 ft
- Code IATA : BCN


LEBL - Barcelone

DERNIER METAR :
  • 161730Z 15006KT 120V180 9999 VCSH FEW055TCU 27/21 Q1013 NOSIG

METARs EXPIRÉS :
  • 161726Z 15006KT 120V180 9999 VCSH FEW055TCU 27/21 Q1013 NOSIG
  • 161700Z 15006KT 120V180 9999 SCT055 26/21 Q1013 NOSIG
  • 161630Z 17009KT 9999 FEW055 27/20 Q1013 NOSIG
  • 161600Z 17009KT 130V200 9999 FEW050 27/20 Q1013 NOSIG
  • 161530Z 16009KT 140V200 9999 FEW050 27/19 Q1013 NOSIG
  • 161500Z 17009KT 130V210 9999 FEW055 28/19 Q1013 NOSIG

TAF TAF LEBL
Valide du 16 à 18h jusqu'au 17 à 18h UTC


161700Z 1618/1718 17008KT 9999 FEW030 TX29/1712Z TN22/1706Z
BECMG 1618/1620 35005KT
BECMG 1709/1712 16009KT
Pas de NOTAMs connus pour ce terrain.



MET'MAP, la Météo Aéronautique d'un coup d'oeil ! - Copyright ORBIFLY Décembre 2007 - Disclaimer

ORBIFLY MET'MAP TEAM :

Programmation & Développement : Alexandra Zaïnal
Conception & Développement : Baudouin d'Aumeries
Co-Programmation & Développement : Marc-Olivier Méhu
Soutien technique & logistique : Manuel Goepfert

Contact : metmap@orbifly.com




SOURCES & CREDITS :

   NOAA